LSZR/ACH METAR and TAF weather

Enter ICAO airport designator
Station Type Date Time Source
LSZR METAR 2019/05/26 00:50 UTC NOAA

LSZR 260050Z AUTO VRB01KT 9999 BKN060 BKN070 11/11 Q1017


Station Type Date Time Source
LSZR Decoded METAR 2019/05/26 00:50 UTC NOAA

Saint Gallen-Altenrhein, Switzerland (LSZR) 47-29-06N 009-33-43E
May 25, 2019 - 08:50 PM EDT / 2019.05.26 0050 UTC
Wind: Variable at 1 MPH (1 KT):0
Visibility: greater than 7 mile(s):0
Sky conditions: mostly cloudy
Temperature: 51 F (11 C)
Dew Point: 51 F (11 C)
Relative Humidity: 100%
Pressure (altimeter): 30.03 in. Hg (1017 hPa)
ob: LSZR 260050Z AUTO VRB01KT 9999 BKN060 BKN070 11/11 Q1017
cycle: 1

Station Type Date Time Source
LSZR TAF 2014/12/22 20:03 UTC NOAA

TAF
AMD LSZR 222054Z 2220/2224 CNL

Example: see airport list